Marfret Guyane — FNMV — position and weather

sailwx.info

Track history (hours):
 
Tides and Currents Weather Stations Pressure Air Temp Water Temp Dewpoint Dewpoint Depression Visibility Wind Speed Wind Dir Waves Ship Positions

Marfret Guyane

Last reported at 2017-Dec-09 19:24 UTC. Time now 2017-Dec-12 18:08 UTC.
Position N 36°45' W 026°44'.

Length 170 m; draft 9.4 m.

Type: Cargo ship. MMSI: 226324000.

Date/timePositionNaut miles runAvg speedWind from/ knotsBaromVisibWave heightAir tempDewpointWater temp
2017-Dec-09 19:24N 36°45' W 026°44'718.0
2017-Dec-09 19:00N 36°49' W 026°36'917.6
2017-Dec-09 18:30N 36°53' W 026°27'917.8
2017-Dec-09 18:00N 36°58' W 026°17'917.8
2017-Dec-09 17:30N 37°02' W 026°08'917.7
2017-Dec-09 17:01N 37°07' W 025°58'918.1
2017-Dec-09 16:30N 37°11' W 025°48'918.0
2017-Dec-09 16:01N 37°16' W 025°38'917.7
2017-Dec-09 15:31N 37°20' W 025°29'917.8
2017-Dec-09 15:01N 37°25' W 025°19'918.0
2017-Dec-09 14:31N 37°29' W 025°09'917.9
2017-Dec-09 14:00N 37°35' W 025°00'917.9
2017-Dec-09 13:30N 37°40' W 024°52'918.0
2017-Dec-09 13:00N 37°46' W 024°43'917.8
2017-Dec-09 12:30N 37°52' W 024°34'917.8
2017-Dec-09 12:00N 37°57' W 024°25'917.8
2017-Dec-09 11:30N 38°03' W 024°17'917.7
2017-Dec-09 11:00N 38°09' W 024°08'917.9
2017-Dec-09 10:30N 38°14' W 023°59'  
2017-Dec-06 23:32N 49°02' W 005°29'214.3
2017-Dec-06 23:25N 49°03' W 005°27'613.5
2017-Dec-06 23:01N 49°06' W 005°19'611.7
2017-Dec-06 22:30N 49°09' W 005°12'  
2017-Dec-04 10:30N 50°40' E 000°46'611.7
2017-Dec-04 10:00N 50°44' E 000°54'611.8
2017-Dec-04 09:30N 50°47' E 001°01'713.7
2017-Dec-04 09:00N 50°52' E 001°09'917.8
2017-Dec-04 08:30N 50°59' E 001°17'1019.7
2017-Dec-04 08:00N 51°06' E 001°29'1020.5
2017-Dec-04 07:30N 51°12' E 001°42'1019.7
2017-Dec-04 07:01N 51°20' E 001°50'918.6
2017-Dec-04 06:30N 51°28' E 001°58'917.7
2017-Dec-04 06:00N 51°35' E 002°07'917.2
2017-Dec-04 05:30N 51°42' E 002°16'816.8
2017-Dec-04 05:00N 51°48' E 002°24'4114.2
2017-Dec-04 02:06N 52°03' E 003°27'215.4
2017-Dec-04 01:58N 52°04' E 003°30'715.2
2017-Dec-04 01:31N 52°04' E 003°41'714.0
2017-Dec-04 01:00N 52°04' E 003°53'3 6.5
2017-Dec-04 00:31N 52°02' E 003°57'611.7
2017-Dec-04 00:01N 51°59' E 004°05'713.0
2017-Dec-03 23:30N 51°55' E 004°14'611.8
2017-Dec-03 23:01N 51°54' E 004°23'2 3.7
2017-Dec-03 22:30N 51°54' E 004°26'0 0.0
2017-Dec-03 21:59N 51°54' E 004°26'0 0.0
2017-Dec-03 21:29N 51°54' E 004°26'0 0.0
2017-Dec-03 20:59N 51°54' E 004°26'0 0.0
2017-Dec-03 20:29N 51°54' E 004°26'0 0.0
2017-Dec-03 19:59N 51°54' E 004°26'0 0.0
2017-Dec-03 19:29N 51°54' E 004°26'0 0.0
2017-Dec-03 18:59N 51°54' E 004°26'0 0.0
2017-Dec-03 18:29N 51°54' E 004°26'0 0.0
2017-Dec-03 17:59N 51°54' E 004°26'0 0.0
2017-Dec-03 17:29N 51°54' E 004°26'0 0.0
2017-Dec-03 16:59N 51°54' E 004°26'0 0.0
2017-Dec-03 16:29N 51°54' E 004°26'0 0.0
2017-Dec-03 15:59N 51°54' E 004°26'0 0.0
2017-Dec-03 15:29N 51°54' E 004°26'0 0.0
2017-Dec-03 14:59N 51°54' E 004°26'0 0.0
2017-Dec-03 14:29N 51°54' E 004°26'0 0.0
2017-Dec-03 13:59N 51°54' E 004°26'0 0.0
2017-Dec-03 13:29N 51°54' E 004°26'0 0.0
2017-Dec-03 12:59N 51°54' E 004°26'0 0.0
2017-Dec-03 12:29N 51°54' E 004°26'0 0.0
2017-Dec-03 11:59N 51°54' E 004°26'0 0.0
2017-Dec-03 11:29N 51°54' E 004°26'0 0.0
2017-Dec-03 10:59N 51°54' E 004°26'0 0.0
2017-Dec-03 10:29N 51°54' E 004°26'0 0.0
2017-Dec-03 09:59N 51°54' E 004°26'0 0.0
2017-Dec-03 09:29N 51°54' E 004°26'0 0.0
2017-Dec-03 08:59N 51°54' E 004°26'0 0.0
2017-Dec-03 08:29N 51°54' E 004°26'0 0.0
2017-Dec-03 07:59N 51°54' E 004°26'0 0.0
2017-Dec-03 07:29N 51°54' E 004°26'0 0.0
2017-Dec-03 06:59N 51°54' E 004°26'0 0.0
2017-Dec-03 06:29N 51°54' E 004°26'0 0.0
2017-Dec-03 05:59N 51°54' E 004°26'0 0.0
2017-Dec-03 05:29N 51°54' E 004°26'0 0.0
2017-Dec-03 04:59N 51°54' E 004°26'0 0.3
2017-Dec-03 04:30N 51°54' E 004°26'3 5.3
2017-Dec-03 04:00N 51°54' E 004°22'5 9.9
2017-Dec-03 03:31N 51°55' E 004°14'712.1
2017-Dec-03 02:57N 51°59' E 004°05'613.0
2017-Dec-03 02:31N 52°00' E 003°56'4 8.1
2017-Dec-03 02:00N 51°59' E 003°49'4 7.5
2017-Dec-03 01:30N 51°58' E 003°44'4 7.7
2017-Dec-03 01:00N 51°57' E 003°38'4 7.7
2017-Dec-03 00:30N 51°57' E 003°31'12 9.8
2017-Dec-02 23:16N 51°53' E 003°13'3116.5
2017-Dec-02 21:22N 51°38' E 002°28'716.9
2017-Dec-02 20:59N 51°34' E 002°20'914.9
2017-Dec-02 20:21N 51°35' E 002°05'515.7
2017-Dec-02 20:00N 51°35' E 001°56'815.9
2017-Dec-02 19:31N 51°32' E 001°45'714.9
2017-Dec-02 19:01N 51°28' E 001°35'4 7.9
2017-Dec-02 18:31N 51°26' E 001°29'612.4
2017-Dec-02 18:01N 51°29' E 001°21'713.0
2017-Dec-02 17:30N 51°29' E 001°10'510.0
2017-Dec-02 17:00N 51°30' E 001°02'5 0.4
2017-Dec-02 03:13N 51°29' E 000°54'314.5
2017-Dec-02 03:00N 51°29' E 000°59'815.5
2017-Dec-02 02:30N 51°33' E 001°10'713.9
2017-Dec-02 02:00N 51°36' E 001°20'510.5
2017-Dec-02 01:31N 51°33' E 001°26'714.8
2017-Dec-02 01:01N 51°27' E 001°31'4 7.2
2017-Dec-02 00:30N 51°23' E 001°34'4 8.4
2017-Dec-02 00:00N 51°19' E 001°36'5 9.2
2017-Dec-01 23:30N 51°15' E 001°38'510.0
2017-Dec-01 23:01N 51°11' E 001°42'4 8.8
2017-Dec-01 22:30N 51°06' E 001°41'611.5
2017-Dec-01 22:01N 51°02' E 001°34'1529.3
2017-Dec-01 21:30N 50°49' E 001°23'13 7.4
2017-Dec-01 19:49N 50°39' E 001°12'616.2
2017-Dec-01 19:27N 50°35' E 001°05'815.5
2017-Dec-01 18:55N 50°30' E 000°55'716.5
2017-Dec-01 18:30N 50°28' E 000°44'1216.9
2017-Dec-01 17:46N 50°25' E 000°26'416.0
2017-Dec-01 17:30N 50°23' E 000°19'816.3
2017-Dec-01 17:00N 50°21' E 000°07'815.7
2017-Dec-01 16:31N 50°19' W 000°05'815.2
2017-Dec-01 16:00N 50°16' W 000°16'1415.4
2017-Dec-01 15:07N 50°12' W 000°36'215.1
2017-Dec-01 15:00N 50°12' W 000°39'1114.9
2017-Dec-01 14:14N 50°09' W 000°57'415.3
2017-Dec-01 13:59N 50°09' W 001°02'715.0
2017-Dec-01 13:30N 50°07' W 001°13'814.4
2017-Dec-01 12:59N 50°05' W 001°25'714.5
2017-Dec-01 12:30N 50°03' W 001°35'714.2
2017-Dec-01 12:00N 50°01' W 001°46'713.9
2017-Dec-01 11:31N 49°59' W 001°56'713.4
2017-Dec-01 11:00N 49°57' W 002°06'612.9
2017-Dec-01 10:30N 49°55' W 002°16'713.7
2017-Dec-01 10:01N 49°54' W 002°26'714.5
2017-Dec-01 09:30N 49°52' W 002°37'714.9
2017-Dec-01 09:01N 49°50' W 002°48'714.9
2017-Dec-01 08:31N 49°47' W 002°59'815.1
2017-Dec-01 08:00N 49°43' W 003°09'7415.5
2017-Dec-01 03:16N 49°05' W 004°45'1215.9
2017-Dec-01 02:32N 48°59' W 005°01'516.0
2017-Dec-01 02:15N 48°57' W 005°07'416.1
2017-Dec-01 02:00N 48°55' W 005°12'816.2
2017-Dec-01 01:31N 48°51' W 005°23'816.7
2017-Dec-01 01:00N 48°47' W 005°34'812.8
2017-Dec-01 00:25N 48°41' W 005°41'2411.6
2017-Nov-30 22:18N 48°19' W 005°58'  
Track history (hours):
 
Tides and Currents Weather Stations Pressure Air Temp Water Temp Dewpoint Dewpoint Depression Visibility Wind Speed Wind Dir Waves Ship Positions

Marfret Guyane

Last reported at 2017-Dec-09 19:24 UTC. Time now 2017-Dec-12 18:08 UTC.
Position N 36°45' W 026°44'.

Length 170 m; draft 9.4 m.

Type: Cargo ship. MMSI: 226324000.

Date/timePositionNaut miles runAvg speedWind from/ knotsBaromVisibWave heightAir tempDewpointWater temp
2017-Dec-09 19:24N 36°45' W 026°44'718.0
2017-Dec-09 19:00N 36°49' W 026°36'917.6
2017-Dec-09 18:30N 36°53' W 026°27'917.8
2017-Dec-09 18:00N 36°58' W 026°17'917.8
2017-Dec-09 17:30N 37°02' W 026°08'917.7
2017-Dec-09 17:01N 37°07' W 025°58'918.1
2017-Dec-09 16:30N 37°11' W 025°48'918.0
2017-Dec-09 16:01N 37°16' W 025°38'917.7
2017-Dec-09 15:31N 37°20' W 025°29'917.8
2017-Dec-09 15:01N 37°25' W 025°19'918.0
2017-Dec-09 14:31N 37°29' W 025°09'917.9
2017-Dec-09 14:00N 37°35' W 025°00'917.9
2017-Dec-09 13:30N 37°40' W 024°52'918.0
2017-Dec-09 13:00N 37°46' W 024°43'917.8
2017-Dec-09 12:30N 37°52' W 024°34'917.8
2017-Dec-09 12:00N 37°57' W 024°25'917.8
2017-Dec-09 11:30N 38°03' W 024°17'917.7
2017-Dec-09 11:00N 38°09' W 024°08'917.9
2017-Dec-09 10:30N 38°14' W 023°59'  
2017-Dec-06 23:32N 49°02' W 005°29'214.3
2017-Dec-06 23:25N 49°03' W 005°27'613.5
2017-Dec-06 23:01N 49°06' W 005°19'611.7
2017-Dec-06 22:30N 49°09' W 005°12'  
2017-Dec-04 10:30N 50°40' E 000°46'611.7
2017-Dec-04 10:00N 50°44' E 000°54'611.8
2017-Dec-04 09:30N 50°47' E 001°01'713.7
2017-Dec-04 09:00N 50°52' E 001°09'917.8
2017-Dec-04 08:30N 50°59' E 001°17'1019.7
2017-Dec-04 08:00N 51°06' E 001°29'1020.5
2017-Dec-04 07:30N 51°12' E 001°42'1019.7
2017-Dec-04 07:01N 51°20' E 001°50'918.6
2017-Dec-04 06:30N 51°28' E 001°58'917.7
2017-Dec-04 06:00N 51°35' E 002°07'917.2
2017-Dec-04 05:30N 51°42' E 002°16'816.8
2017-Dec-04 05:00N 51°48' E 002°24'4114.2
2017-Dec-04 02:06N 52°03' E 003°27'215.4
2017-Dec-04 01:58N 52°04' E 003°30'715.2
2017-Dec-04 01:31N 52°04' E 003°41'714.0
2017-Dec-04 01:00N 52°04' E 003°53'3 6.5
2017-Dec-04 00:31N 52°02' E 003°57'611.7
2017-Dec-04 00:01N 51°59' E 004°05'713.0
2017-Dec-03 23:30N 51°55' E 004°14'611.8
2017-Dec-03 23:01N 51°54' E 004°23'2 3.7
2017-Dec-03 22:30N 51°54' E 004°26'0 0.0
2017-Dec-03 21:59N 51°54' E 004°26'0 0.0
2017-Dec-03 21:29N 51°54' E 004°26'0 0.0
2017-Dec-03 20:59N 51°54' E 004°26'0 0.0
2017-Dec-03 20:29N 51°54' E 004°26'0 0.0
2017-Dec-03 19:59N 51°54' E 004°26'0 0.0
2017-Dec-03 19:29N 51°54' E 004°26'0 0.0
2017-Dec-03 18:59N 51°54' E 004°26'0 0.0
2017-Dec-03 18:29N 51°54' E 004°26'0 0.0
2017-Dec-03 17:59N 51°54' E 004°26'0 0.0
2017-Dec-03 17:29N 51°54' E 004°26'0 0.0
2017-Dec-03 16:59N 51°54' E 004°26'0 0.0
2017-Dec-03 16:29N 51°54' E 004°26'0 0.0
2017-Dec-03 15:59N 51°54' E 004°26'0 0.0
2017-Dec-03 15:29N 51°54' E 004°26'0 0.0
2017-Dec-03 14:59N 51°54' E 004°26'0 0.0
2017-Dec-03 14:29N 51°54' E 004°26'0 0.0
2017-Dec-03 13:59N 51°54' E 004°26'0 0.0
2017-Dec-03 13:29N 51°54' E 004°26'0 0.0
2017-Dec-03 12:59N 51°54' E 004°26'0 0.0
2017-Dec-03 12:29N 51°54' E 004°26'0 0.0
2017-Dec-03 11:59N 51°54' E 004°26'0 0.0
2017-Dec-03 11:29N 51°54' E 004°26'0 0.0
2017-Dec-03 10:59N 51°54' E 004°26'0 0.0
2017-Dec-03 10:29N 51°54' E 004°26'0 0.0
2017-Dec-03 09:59N 51°54' E 004°26'0 0.0
2017-Dec-03 09:29N 51°54' E 004°26'0 0.0
2017-Dec-03 08:59N 51°54' E 004°26'0 0.0
2017-Dec-03 08:29N 51°54' E 004°26'0 0.0
2017-Dec-03 07:59N 51°54' E 004°26'0 0.0
2017-Dec-03 07:29N 51°54' E 004°26'0 0.0
2017-Dec-03 06:59N 51°54' E 004°26'0 0.0
2017-Dec-03 06:29N 51°54' E 004°26'0 0.0
2017-Dec-03 05:59N 51°54' E 004°26'0 0.0
2017-Dec-03 05:29N 51°54' E 004°26'0 0.0
2017-Dec-03 04:59N 51°54' E 004°26'0 0.3
2017-Dec-03 04:30N 51°54' E 004°26'3 5.3
2017-Dec-03 04:00N 51°54' E 004°22'5 9.9
2017-Dec-03 03:31N 51°55' E 004°14'712.1
2017-Dec-03 02:57N 51°59' E 004°05'613.0
2017-Dec-03 02:31N 52°00' E 003°56'4 8.1
2017-Dec-03 02:00N 51°59' E 003°49'4 7.5
2017-Dec-03 01:30N 51°58' E 003°44'4 7.7
2017-Dec-03 01:00N 51°57' E 003°38'4 7.7
2017-Dec-03 00:30N 51°57' E 003°31'12 9.8
2017-Dec-02 23:16N 51°53' E 003°13'3116.5
2017-Dec-02 21:22N 51°38' E 002°28'716.9
2017-Dec-02 20:59N 51°34' E 002°20'914.9
2017-Dec-02 20:21N 51°35' E 002°05'515.7
2017-Dec-02 20:00N 51°35' E 001°56'815.9
2017-Dec-02 19:31N 51°32' E 001°45'714.9
2017-Dec-02 19:01N 51°28' E 001°35'4 7.9
2017-Dec-02 18:31N 51°26' E 001°29'612.4
2017-Dec-02 18:01N 51°29' E 001°21'713.0
2017-Dec-02 17:30N 51°29' E 001°10'510.0
2017-Dec-02 17:00N 51°30' E 001°02'5 0.4
2017-Dec-02 03:13N 51°29' E 000°54'314.5
2017-Dec-02 03:00N 51°29' E 000°59'815.5
2017-Dec-02 02:30N 51°33' E 001°10'713.9
2017-Dec-02 02:00N 51°36' E 001°20'510.5
2017-Dec-02 01:31N 51°33' E 001°26'714.8
2017-Dec-02 01:01N 51°27' E 001°31'4 7.2
2017-Dec-02 00:30N 51°23' E 001°34'4 8.4
2017-Dec-02 00:00N 51°19' E 001°36'5 9.2
2017-Dec-01 23:30N 51°15' E 001°38'510.0
2017-Dec-01 23:01N 51°11' E 001°42'4 8.8
2017-Dec-01 22:30N 51°06' E 001°41'611.5
2017-Dec-01 22:01N 51°02' E 001°34'1529.3
2017-Dec-01 21:30N 50°49' E 001°23'13 7.4
2017-Dec-01 19:49N 50°39' E 001°12'616.2
2017-Dec-01 19:27N 50°35' E 001°05'815.5
2017-Dec-01 18:55N 50°30' E 000°55'716.5
2017-Dec-01 18:30N 50°28' E 000°44'1216.9
2017-Dec-01 17:46N 50°25' E 000°26'416.0
2017-Dec-01 17:30N 50°23' E 000°19'816.3
2017-Dec-01 17:00N 50°21' E 000°07'815.7
2017-Dec-01 16:31N 50°19' W 000°05'815.2
2017-Dec-01 16:00N 50°16' W 000°16'1415.4
2017-Dec-01 15:07N 50°12' W 000°36'215.1
2017-Dec-01 15:00N 50°12' W 000°39'1114.9
2017-Dec-01 14:14N 50°09' W 000°57'415.3
2017-Dec-01 13:59N 50°09' W 001°02'715.0
2017-Dec-01 13:30N 50°07' W 001°13'814.4
2017-Dec-01 12:59N 50°05' W 001°25'714.5
2017-Dec-01 12:30N 50°03' W 001°35'714.2
2017-Dec-01 12:00N 50°01' W 001°46'713.9
2017-Dec-01 11:31N 49°59' W 001°56'713.4
2017-Dec-01 11:00N 49°57' W 002°06'612.9
2017-Dec-01 10:30N 49°55' W 002°16'713.7
2017-Dec-01 10:01N 49°54' W 002°26'714.5
2017-Dec-01 09:30N 49°52' W 002°37'714.9
2017-Dec-01 09:01N 49°50' W 002°48'714.9
2017-Dec-01 08:31N 49°47' W 002°59'815.1
2017-Dec-01 08:00N 49°43' W 003°09'7415.5
2017-Dec-01 03:16N 49°05' W 004°45'1215.9
2017-Dec-01 02:32N 48°59' W 005°01'516.0
2017-Dec-01 02:15N 48°57' W 005°07'416.1
2017-Dec-01 02:00N 48°55' W 005°12'816.2
2017-Dec-01 01:31N 48°51' W 005°23'816.7
2017-Dec-01 01:00N 48°47' W 005°34'812.8
2017-Dec-01 00:25N 48°41' W 005°41'2411.6
2017-Nov-30 22:18N 48°19' W 005°58'  

Dump ship's entire track history